Data for 05/23/2017

Time Sea-Level Adjusted Pressure Absolute Pressure Temperature Relative Humidity Dew Point   
(mb) (inHg) (mb) (inHg) (C) (F) (%) (C) (F)
00:05 1025 30.27 854 25.22 10 50 53 0.9 33.6
00:10 1025 30.27 854 25.22 9.4 48.9 55 1 33.7
00:15 1025 30.27 854 25.22 9.1 48.4 56 0.7 33.2
00:20 1025 30.27 854 25.22 9 48.2 56 0.6 33.1
00:25 1025 30.27 854 25.22 8.9 48.1 55 0.4 32.7
00:30 1025 30.27 854 25.22 9.1 48.5 53 0.1 32.3
00:35 1025 30.27 854 25.22 9.4 48.8 53 0.4 32.7
00:40 1025 30.27 854 25.22 9.1 48.4 54 0.3 32.6
00:45 1025 30.27 854 25.22 8.9 48.1 54 0.1 32.2
00:50 1025 30.27 854 25.22 9 48.2 54 0.2 32.3
00:55 1025 30.27 854 25.22 8.9 48 54 0 32.1
01:00 1025 30.27 854 25.22 9 48.1 53 -0 32
01:05 1025 30.27 854 25.22 8.9 48 54 0.3 32.5
01:10 1025 30.27 854 25.22 8.5 47.4 57 0.5 32.8
01:15 1025 30.27 854 25.22 8.2 46.7 57 0.3 32.5
01:20 1025 30.27 854 25.22 8.1 46.6 58 0.3 32.5
01:25 1025 30.27 854 25.22 8.2 46.7 58 0.4 32.8
01:30 1025 30.27 854 25.22 7.9 46.1 59 0.3 32.5
01:35 1025 30.27 854 25.22 7.8 46 59 0.2 32.4
01:40 1025 30.27 854 25.22 7.8 46 59 0.2 32.4
01:45 1025 30.27 854 25.22 7.7 45.9 59 0.3 32.5
01:50 1025 30.27 854 25.22 7.7 45.9 59 0.2 32.4
01:55 1025 30.27 854 25.22 7.7 45.8 59 0.2 32.3
02:00 1025 30.27 854 25.22 7.6 45.7 59 0.1 32.2
02:05 1025 30.27 854 25.22 7.7 45.8 59 0.2 32.3
02:10 1025 30.27 854 25.22 7.6 45.7 58 -0.2 31.7
02:15 1025 30.27 854 25.22 7.8 46 58 0 32
02:20 1025 30.27 854 25.22 7.7 45.8 58 -0.1 31.8
02:25 1025 30.27 854 25.22 7.7 45.8 58 -0.1 31.8
02:30 1025 30.27 854 25.22 7.7 45.9 58 0 32.1
02:35 1025 30.27 854 25.22 7.6 45.6 57 -0.4 31.3
02:40 1025 30.27 854 25.22 7.9 46.2 57 -0.1 31.8
02:45 1025 30.27 854 25.22 7.7 45.9 57 -0.1 31.7
02:50 1025 30.27 854 25.22 7.5 45.6 58 -0.1 31.9
02:55 1025 30.27 854 25.22 7.3 45.1 59 -0.3 31.5
03:00 1025 30.27 854 25.22 7.4 45.2 58 -0.3 31.5
03:05 1025 30.27 854 25.22 7.6 45.7 56 -0.5 31.1
03:10 1024 30.24 854 25.22 7.9 46.2 56 -0.4 31.3
03:15 1025 30.27 854 25.22 7.9 46.3 56 -0.3 31.5
03:20 1025 30.27 854 25.22 7.7 45.9 57 -0.1 31.8
03:25 1025 30.27 854 25.22 7.4 45.3 58 -0.4 31.3
03:30 1025 30.27 854 25.22 7.3 45.2 59 -0.2 31.7
03:35 1025 30.27 854 25.22 7.1 44.8 59 -0.3 31.4
03:40 1025 30.27 854 25.22 7.1 44.7 60 -0.2 31.6
03:45 1024 30.24 854 25.22 7 44.6 60 -0.3 31.4
03:50 1024 30.24 854 25.22 6.9 44.4 60 -0.2 31.6
03:55 1024 30.24 854 25.22 6.7 44.1 61 -0.3 31.5
04:00 1024 30.24 854 25.22 6.7 44 61 -0.3 31.4
04:05 1024 30.24 854 25.22 6.5 43.7 62 -0.3 31.4
04:10 1024 30.24 854 25.22 6.5 43.8 62 -0.3 31.5
04:15 1024 30.24 854 25.22 6.4 43.5 63 -0.2 31.6
04:20 1024 30.24 853 25.19 6.1 43 63 -0.3 31.5
04:25 1024 30.24 854 25.22 6.1 43 63 -0.5 31.1
04:30 1024 30.24 853 25.19 6.2 43.2 63 -0.4 31.3
04:35 1024 30.24 853 25.19 6.3 43.3 62 -0.4 31.2
04:40 1024 30.24 854 25.22 6.3 43.3 63 -0.3 31.4
04:45 1024 30.24 854 25.22 6.3 43.3 62 -0.4 31.3
04:50 1024 30.24 854 25.22 6.2 43.2 63 -0.3 31.4
04:55 1024 30.24 854 25.22 6.1 43 63 -0.3 31.5
05:00 1024 30.24 854 25.22 6.1 42.9 64 -0.2 31.6
05:05 1024 30.24 854 25.22 5.9 42.7 65 -0.2 31.7
05:10 1024 30.24 854 25.22 5.9 42.5 65 -0.3 31.5
05:15 1024 30.24 854 25.22 6 42.8 64 -0.3 31.4
05:20 1024 30.24 854 25.22 6.2 43.2 63 -0.4 31.4
05:25 1024 30.24 853 25.19 6.3 43.4 63 -0.3 31.5
05:30 1024 30.24 853 25.19 6.2 43.2 63 -0.2 31.6
05:35 1024 30.24 853 25.19 6.2 43.1 63 -0.3 31.4
05:40 1024 30.24 853 25.19 6.3 43.3 62 -0.4 31.2
05:45 1024 30.24 853 25.19 6.2 43.2 64 -0.2 31.7
05:50 1024 30.24 853 25.19 6.2 43.2 62 -0.4 31.3
05:55 1024 30.24 853 25.19 6.4 43.5 63 -0.1 31.8
06:00 1024 30.24 854 25.22 6.2 43.2 65 0 32.1
06:05 1024 30.24 854 25.22 6.1 43 65 -0 32
06:10 1024 30.24 854 25.22 6.1 43 65 0.1 32.2
06:15 1024 30.24 854 25.22 6.1 43 65 0 32
06:20 1024 30.24 854 25.22 6.1 43 65 0 32.1
06:25 1024 30.24 854 25.22 6.2 43.2 64 0 32
06:30 1024 30.24 854 25.22 6.7 44.1 62 -0.2 31.7
06:35 1024 30.24 854 25.22 7.2 45 60 0 32
06:40 1024 30.24 854 25.22 7.4 45.4 60 0.2 32.4
06:45 1024 30.24 854 25.22 7.5 45.5 60 0.3 32.5
06:50 1024 30.24 854 25.22 7.7 45.9 59 0.2 32.4
06:55 1024 30.24 854 25.22 7.8 46.1 59 0.4 32.7
07:00 1024 30.24 854 25.22 7.9 46.2 60 0.6 33.1
07:05 1024 30.24 854 25.22 8 46.4 60 0.7 33.3
07:10 1024 30.24 854 25.22 7.9 46.2 60 0.6 33.1
07:15 1024 30.24 854 25.22 8 46.5 59 0.6 33.1
07:20 1024 30.24 853 25.19 8.2 46.7 60 0.9 33.6
07:25 1024 30.24 853 25.19 8.4 47.2 59 0.8 33.5
07:30 1024 30.24 853 25.19 9 48.1 56 0.6 33.1
07:35 1024 30.24 853 25.19 9.5 49 54 0.6 33
07:40 1024 30.24 853 25.19 10 50 52 0.7 33.3
07:45 1024 30.24 853 25.19 10.3 50.6 51 0.8 33.4
07:50 1024 30.24 853 25.19 10.3 50.5 53 1.1 34
07:55 1024 30.24 853 25.19 10.6 51 51 0.8 33.5
08:00 1024 30.24 853 25.19 11.1 51.9 50 1.2 34.1
08:05 1024 30.24 853 25.19 11.8 53.2 48 1.3 34.3
08:10 1024 30.24 853 25.19 12 53.7 49 1.8 35.2
08:15 1024 30.24 853 25.19 12 53.6 49 1.8 35.2
08:20 1024 30.24 853 25.19 12.2 53.9 49 1.8 35.3
08:25 1024 30.24 853 25.19 12.7 54.9 47 1.8 35.3
08:30 1024 30.24 853 25.19 12.9 55.3 47 1.9 35.4
08:35 1024 30.24 853 25.19 13.2 55.7 45 1.5 34.7
08:40 1024 30.24 853 25.19 13.8 56.9 42 1.2 34.2
08:45 1024 30.24 853 25.19 14.1 57.4 38 0 32
08:50 1024 30.24 853 25.19 15 58.9 36 0.2 32.3
08:55 1024 30.24 853 25.19 15.5 59.9 35 0.2 32.3
09:00 1024 30.24 853 25.19 15.8 60.5 34 0 32
09:05 1024 30.24 853 25.19 16 60.8 33 -0 32
09:10 1024 30.24 853 25.19 15.8 60.5 34 0.3 32.5
09:15 1024 30.24 853 25.19 15.2 59.4 35 -0.1 31.8
09:20 1024 30.24 853 25.19 16 60.8 33 -0.2 31.6
09:25 1024 30.24 853 25.19 15.8 60.4 34 0 32.1
09:30 1023 30.21 853 25.19 16.2 61.1 35 0.7 33.3
09:35 1023 30.21 853 25.19 16.5 61.7 33 0.1 32.2
09:40 1023 30.21 853 25.19 17.3 63.1 30 -0.4 31.3
09:45 1023 30.21 853 25.19 17.7 63.8 29 -0.5 31.2
09:50 1023 30.21 853 25.19 17.7 63.9 30 0.2 32.3
09:55 1023 30.21 853 25.19 17.1 62.8 31 -0 32
10:00 1023 30.21 853 25.19 17.8 64 29 -0.1 31.7
10:05 1023 30.21 852 25.16 18.3 64.9 30 0.3 32.6
10:10 1023 30.21 852 25.16 18.4 65.1 28 -0.1 31.8
10:15 1023 30.21 852 25.16 17.6 63.8 29 -0.4 31.4
10:20 1023 30.21 852 25.16 18 64.3 29 -0.3 31.5
10:25 1023 30.21 852 25.16 18.9 66.1 30 0.9 33.6
10:30 1023 30.21 852 25.16 19 66.1 28 0.1 32.1
10:35 1023 30.21 852 25.16 19 66.3 29 0.8 33.4
10:40 1023 30.21 852 25.16 19.5 67.2 28 0.5 32.9
10:45 1023 30.21 852 25.16 20.1 68.1 26 0.2 32.4
10:50 1023 30.21 852 25.16 19.9 67.8 26 0.2 32.4
10:55 1023 30.21 852 25.16 19.6 67.3 26 -0.2 31.7
11:00 1022 30.18 852 25.16 19.3 66.7 27 0 32.1
11:05 1022 30.18 852 25.16 19.8 67.6 25 -0.6 31
11:10 1022 30.18 852 25.16 20.5 68.9 27 1.1 34.1
11:15 1022 30.18 852 25.16 20.1 68.2 26 0 32
11:20 1022 30.18 851 25.13 20.7 69.2 25 0.1 32.1
11:25 1022 30.18 851 25.13 20.4 68.7 25 -0.1 31.8
11:30 1022 30.18 851 25.13 20.5 68.8 24 -0.4 31.2
11:35 1022 30.18 851 25.13 20.8 69.4 24 -0.4 31.2
11:40 1022 30.18 851 25.13 21.2 70.1 24 -0.1 31.8
11:45 1022 30.18 851 25.13 21 69.7 24 -0.2 31.7
11:50 1022 30.18 851 25.13 20.5 69 25 -0.1 31.8
11:55 1022 30.18 851 25.13 20.4 68.7 25 -0.1 31.9
12:00 1022 30.18 851 25.13 21.4 70.5 24 0.3 32.6
12:05 1022 30.18 851 25.13 21.6 70.8 24 0.1 32.2
12:10 1022 30.18 851 25.13 21.2 70.2 25 0.3 32.6
12:15 1022 30.18 851 25.13 21.4 70.5 25 0.8 33.5
12:20 1021 30.15 851 25.13 21.1 70 24 -0 31.9
12:25 1021 30.15 851 25.13 21.8 71.3 23 0.2 32.3
12:30 1021 30.15 851 25.13 22 71.5 24 0.7 33.3
12:35 1021 30.15 850 25.1 22.4 72.2 24 1.2 34.1
12:40 1021 30.15 850 25.1 22.8 73 23 0.6 33.1
12:45 1021 30.15 850 25.1 21.7 71 24 0.3 32.5
12:50 1021 30.15 850 25.1 21.9 71.4 25 0.9 33.7
12:55 1021 30.15 850 25.1 21.4 70.5 23 -0.1 31.8
13:00 1021 30.15 850 25.1 21.9 71.4 24 0.7 33.3
13:05 1021 30.15 850 25.1 21.1 70 25 0.6 33.1
13:10 1021 30.15 850 25.1 21.6 70.9 23 -0 31.9
13:15 1021 30.15 850 25.1 21 69.9 24 -0.3 31.5
13:20 1021 30.15 850 25.1 22.3 72.1 20 -1.3 29.7
13:25 1021 30.15 850 25.1 22.6 72.8 21 -0.8 30.5
13:30 1021 30.15 850 25.1 22.1 71.8 23 -0.1 31.8
13:35 1020 30.12 850 25.1 22.3 72.2 22 -0.4 31.3
13:40 1020 30.12 850 25.1 22.9 73.3 19 -1.8 28.8
13:45 1020 30.12 849 25.07 22.7 72.8 20 -1.1 30
13:50 1020 30.12 849 25.07 22.8 73.1 20 -1.2 29.9
13:55 1020 30.12 849 25.07 22.4 72.4 21 -0.6 30.9
14:00 1020 30.12 849 25.07 22.5 72.5 21 -0.9 30.4
14:05 1020 30.12 849 25.07 21.8 71.3 22 -0.3 31.4
14:10 1020 30.12 849 25.07 23 73.4 21 -0.6 30.9
14:15 1020 30.12 849 25.07 23.5 74.2 20 -0.4 31.3
14:20 1020 30.12 849 25.07 23.7 74.6 21 0.4 32.8
14:25 1020 30.12 849 25.07 23.3 73.9 21 -0.3 31.5
14:30 1020 30.12 849 25.07 23.4 74.2 20 -0.4 31.3
14:35 1020 30.12 849 25.07 23.5 74.4 21 0.4 32.8
14:40 1020 30.12 849 25.07 23.5 74.4 22 0.5 32.9
14:45 1019 30.09 849 25.07 23.8 74.8 22 1.3 34.3
14:50 1019 30.09 849 25.07 23.5 74.2 21 0.4 32.7
14:55 1019 30.09 849 25.07 23.4 74.1 21 0 32.1
15:00 1019 30.09 849 25.07 23.4 74 22 0.5 32.9
15:05 1019 30.09 848 25.04 23.2 73.7 23 1.2 34.2
15:10 1019 30.09 848 25.04 23.1 73.6 22 0.6 33.1
15:15 1019 30.09 848 25.04 23.7 74.7 22 0.7 33.2
15:20 1019 30.09 848 25.04 24.3 75.8 21 1.1 33.9
15:25 1019 30.09 848 25.04 24.4 75.9 21 0.6 33.1
15:30 1019 30.09 848 25.04 24.3 75.8 21 0.9 33.6
15:35 1019 30.09 848 25.04 23.5 74.2 23 1.2 34.2
15:40 1019 30.09 848 25.04 23.8 74.8 22 0.9 33.6
15:45 1019 30.09 848 25.04 23.9 75.1 22 1 33.7
15:50 1019 30.09 848 25.04 23.4 74 22 0.6 33
15:55 1019 30.09 848 25.04 23.4 74.1 22 0.5 33
16:00 1019 30.09 848 25.04 23.5 74.3 22 1 33.7
16:05 1018 30.06 848 25.04 24.3 75.7 22 1.5 34.6
16:10 1018 30.06 848 25.04 24.6 76.2 21 1.3 34.3
16:15 1018 30.06 848 25.04 24.7 76.5 21 1 33.8
16:20 1018 30.06 847 25.01 24.7 76.5 21 1.2 34.2
16:25 1018 30.06 847 25.01 24.8 76.7 20 0.9 33.6
16:30 1018 30.06 847 25.01 24.9 76.9 21 1 33.9
16:35 1018 30.06 847 25.01 24.9 76.9 21 1.4 34.5
16:40 1018 30.06 847 25.01 24.8 76.7 21 1.4 34.5
16:45 1018 30.06 847 25.01 25.2 77.3 21 1.6 34.9
16:50 1018 30.06 847 25.01 25 77 21 1.1 34
16:55 1018 30.06 847 25.01 25 77 21 1.3 34.4
17:00 1018 30.06 847 25.01 25.4 77.8 21 1.5 34.8
17:05 1017 30.03 847 25.01 25.8 78.5 19 0.6 33.1
17:10 1017 30.03 847 25.01 25.3 77.5 20 1 33.7
17:15 1017 30.03 846 24.98 25.2 77.3 21 1.2 34.2
17:20 1017 30.03 846 24.98 25.3 77.6 20 1.1 34
17:25 1017 30.03 846 24.98 25.7 78.3 20 1.1 33.9
17:30 1017 30.03 846 24.98 25.5 77.9 20 1.2 34.1
17:35 1017 30.03 846 24.98 25.5 77.9 21 1.9 35.4
17:40 1017 30.03 846 24.98 25.7 78.2 20 1.5 34.7
17:45 1017 30.03 846 24.98 25.7 78.2 20 1.5 34.7
17:50 1016 30 846 24.98 25.5 77.9 20 1.4 34.5
17:55 1016 30 846 24.98 25.2 77.4 21 1.4 34.6
18:00 1016 30 846 24.98 25.1 77.3 21 1.5 34.7
18:05 1016 30 845 24.95 25.2 77.4 21 1.3 34.3
18:10 1016 30 845 24.95 25.5 78 20 1.4 34.5
18:15 1016 30 845 24.95 25.3 77.6 21 1.8 35.2
18:20 1016 30 845 24.95 25.2 77.3 21 1.8 35.3
18:25 1016 30 845 24.95 25.3 77.5 20 1.2 34.2
18:30 1016 30 845 24.95 25.4 77.7 21 1.7 35.1
18:35 1016 30 845 24.95 25.3 77.5 22 2.2 35.9
18:40 1016 30 845 24.95 25.2 77.4 21 1.7 35.1
18:45 1016 30 845 24.95 24.9 76.9 22 1.8 35.2
18:50 1016 30 845 24.95 24.7 76.5 22 1.6 34.9
18:55 1015 29.97 845 24.95 24.6 76.3 22 1.5 34.7
19:00 1015 29.97 845 24.95 24.3 75.7 23 2.3 36.1
19:05 1015 29.97 844 24.92 24.7 76.4 23 2.6 36.7
19:10 1015 29.97 844 24.92 24.8 76.6 23 2.3 36.2
19:15 1015 29.97 844 24.92 24.4 75.9 24 2.8 37.1
19:20 1015 29.97 844 24.92 24.1 75.3 24 2.6 36.6
19:25 1015 29.97 844 24.92 24 75.2 24 2.6 36.7
19:30 1015 29.97 844 24.92 23.6 74.4 25 2.4 36.3
19:35 1015 29.97 844 24.92 23.6 74.4 24 2 35.6
19:40 1015 29.97 844 24.92 23.7 74.6 24 2.2 35.9
19:45 1015 29.97 844 24.92 23.5 74.3 24 2.2 35.9
19:50 1015 29.97 844 24.92 23.4 74.2 24 2.1 35.8
19:55 1015 29.97 844 24.92 23.3 73.9 24 1.9 35.5
20:00 1015 29.97 844 24.92 23.3 73.9 24 2 35.7
20:05 1015 29.97 844 24.92 23.4 74.1 25 2.5 36.5
20:10 1015 29.97 844 24.92 23.4 74.1 25 2.5 36.5
20:15 1015 29.97 844 24.92 23.2 73.8 25 2.5 36.5
20:20 1014 29.94 844 24.92 23 73.5 26 2.7 36.8
20:25 1014 29.94 844 24.92 22.8 73.1 27 3.1 37.5
20:30 1014 29.94 843 24.89 22.6 72.8 28 3.3 38
20:35 1014 29.94 843 24.89 22.5 72.5 29 3.8 38.9
20:40 1014 29.94 843 24.89 22.3 72.2 29 3.8 38.9
20:45 1014 29.94 843 24.89 22.1 71.8 31 4.6 40.2
20:50 1014 29.94 843 24.89 21.9 71.4 31 4.1 39.4
20:55 1014 29.94 843 24.89 21.6 71 33 4.9 40.8
21:00 1014 29.94 843 24.89 21.1 69.9 37 5.8 42.5
21:05 1014 29.94 843 24.89 20.3 68.5 38 5.5 41.9
21:10 1014 29.94 843 24.89 19.8 67.6 38 5.3 41.5
21:15 1014 29.94 843 24.89 19.5 67 38 5 41
21:20 1014 29.94 843 24.89 18.9 66 38 4.3 39.8
21:25 1014 29.94 843 24.89 18.3 65 40 4.6 40.3
21:30 1014 29.94 843 24.89 18 64.4 39 3.9 39.1
21:35 1014 29.94 843 24.89 17.7 63.9 40 4 39.3
21:40 1014 29.94 843 24.89 17.4 63.3 43 4.8 40.6
21:45 1014 29.94 843 24.89 17.1 62.7 41 4 39.2
21:50 1014 29.94 843 24.89 16.9 62.4 45 5 41
21:55 1014 29.94 843 24.89 16.6 61.8 43 4 39.2
22:00 1013 29.91 843 24.89 16.4 61.5 42 3.5 38.3
22:05 1013 29.91 843 24.89 16.4 61.5 42 3.5 38.3
22:10 1013 29.91 843 24.89 16.6 61.8 40 3 37.4
22:15 1013 29.91 843 24.89 16.7 62 40 3 37.4
22:20 1013 29.91 842 24.86 16.8 62.2 40 3.2 37.8
22:25 1013 29.91 842 24.86 16.8 62.3 39 3 37.4
22:30 1013 29.91 842 24.86 16.9 62.3 36 1.7 35.1
22:35 1013 29.91 842 24.86 17.1 62.7 34 1.3 34.3
22:40 1013 29.91 842 24.86 17.2 63 33 1.1 34
22:45 1013 29.91 842 24.86 17.3 63.1 33 1.2 34.1
22:50 1013 29.91 842 24.86 17.2 62.9 33 0.9 33.6
22:55 1013 29.91 842 24.86 17.2 62.9 33 1 33.7
23:00 1013 29.91 842 24.86 17.2 63 33 1 33.7
23:05 1013 29.91 842 24.86 17.2 62.9 35 1.8 35.2
23:10 1013 29.91 842 24.86 17.1 62.7 34 1.2 34.1
23:15 1013 29.91 842 24.86 16.9 62.5 35 1.5 34.6
23:20 1013 29.91 842 24.86 16.9 62.4 36 1.8 35.3
23:25 1012 29.88 842 24.86 16.8 62.3 37 2 35.6
23:30 1012 29.88 842 24.86 16.7 62.1 37 1.9 35.5
23:35 1012 29.88 842 24.86 16.7 62.1 37 2.1 35.7
23:40 1012 29.88 841 24.83 16.7 62.1 36 1.6 35
23:45 1012 29.88 841 24.83 16.6 61.8 37 2 35.6
23:50 1012 29.88 841 24.83 16.2 61.2 38 1.9 35.4
23:55 1012 29.88 841 24.83 16.2 61.1 38 1.9 35.4
24:00 1012 29.88 841 24.83 16.1 60.9 39 2.2 35.9